sensor_id;sensor_type;location;lat;lon;timestamp;temperature;humidity
909;DHT22;441;51.192;6.788;2024-01-15T00:02:13;21.10;42.40
909;DHT22;441;51.192;6.788;2024-01-15T00:04:40;21.10;42.40
909;DHT22;441;51.192;6.788;2024-01-15T00:07:07;21.10;42.40
909;DHT22;441;51.192;6.788;2024-01-15T00:09:34;21.10;42.50
909;DHT22;441;51.192;6.788;2024-01-15T00:12:02;21.00;42.40
909;DHT22;441;51.192;6.788;2024-01-15T00:14:29;21.00;42.50
909;DHT22;441;51.192;6.788;2024-01-15T00:16:57;21.00;42.50
909;DHT22;441;51.192;6.788;2024-01-15T00:19:24;21.00;42.50
909;DHT22;441;51.192;6.788;2024-01-15T00:21:52;21.00;42.50
909;DHT22;441;51.192;6.788;2024-01-15T00:24:19;21.00;42.60
909;DHT22;441;51.192;6.788;2024-01-15T00:26:46;20.90;42.60
909;DHT22;441;51.192;6.788;2024-01-15T00:29:13;20.90;42.70
909;DHT22;441;51.192;6.788;2024-01-15T00:31:40;20.90;42.80
909;DHT22;441;51.192;6.788;2024-01-15T00:34:08;20.90;42.80
909;DHT22;441;51.192;6.788;2024-01-15T00:36:35;20.90;42.80
909;DHT22;441;51.192;6.788;2024-01-15T00:39:02;20.90;42.90
909;DHT22;441;51.192;6.788;2024-01-15T00:41:30;20.90;42.80
909;DHT22;441;51.192;6.788;2024-01-15T00:43:57;20.90;42.80
909;DHT22;441;51.192;6.788;2024-01-15T00:46:24;20.90;42.90
909;DHT22;441;51.192;6.788;2024-01-15T00:48:51;20.90;42.80
909;DHT22;441;51.192;6.788;2024-01-15T00:51:19;20.90;42.90
909;DHT22;441;51.192;6.788;2024-01-15T00:53:46;20.80;42.80
909;DHT22;441;51.192;6.788;2024-01-15T00:56:13;20.80;42.90
909;DHT22;441;51.192;6.788;2024-01-15T00:58:40;20.80;42.90
909;DHT22;441;51.192;6.788;2024-01-15T01:01:07;20.90;42.90
909;DHT22;441;51.192;6.788;2024-01-15T01:03:34;20.80;42.90
909;DHT22;441;51.192;6.788;2024-01-15T01:06:01;20.80;42.90
909;DHT22;441;51.192;6.788;2024-01-15T01:08:29;20.80;43.00
909;DHT22;441;51.192;6.788;2024-01-15T01:10:56;20.80;43.00
909;DHT22;441;51.192;6.788;2024-01-15T01:13:23;20.80;43.10
909;DHT22;441;51.192;6.788;2024-01-15T01:15:50;20.80;43.00
909;DHT22;441;51.192;6.788;2024-01-15T01:18:17;20.80;43.10
909;DHT22;441;51.192;6.788;2024-01-15T01:20:44;20.70;43.00
909;DHT22;441;51.192;6.788;2024-01-15T01:23:11;20.70;43.00
909;DHT22;441;51.192;6.788;2024-01-15T01:25:40;20.80;43.10
909;DHT22;441;51.192;6.788;2024-01-15T01:28:07;20.70;43.10
909;DHT22;441;51.192;6.788;2024-01-15T01:30:33;20.70;43.10
909;DHT22;441;51.192;6.788;2024-01-15T01:33:00;20.70;43.10
909;DHT22;441;51.192;6.788;2024-01-15T01:35:27;20.70;43.10
909;DHT22;441;51.192;6.788;2024-01-15T01:37:54;20.70;43.20
909;DHT22;441;51.192;6.788;2024-01-15T01:40:21;20.70;43.10
909;DHT22;441;51.192;6.788;2024-01-15T01:42:49;20.70;43.10
909;DHT22;441;51.192;6.788;2024-01-15T01:45:16;20.70;43.10
909;DHT22;441;51.192;6.788;2024-01-15T01:47:43;20.70;43.30
909;DHT22;441;51.192;6.788;2024-01-15T01:50:10;20.70;43.30
909;DHT22;441;51.192;6.788;2024-01-15T01:52:38;20.70;43.30
909;DHT22;441;51.192;6.788;2024-01-15T01:55:07;20.60;43.20
909;DHT22;441;51.192;6.788;2024-01-15T01:57:36;20.70;43.30
909;DHT22;441;51.192;6.788;2024-01-15T02:00:05;20.60;43.80
909;DHT22;441;51.192;6.788;2024-01-15T02:02:32;20.70;43.40
909;DHT22;441;51.192;6.788;2024-01-15T02:05:00;20.60;43.30
909;DHT22;441;51.192;6.788;2024-01-15T02:07:27;20.60;43.30
909;DHT22;441;51.192;6.788;2024-01-15T02:09:54;20.60;43.30
909;DHT22;441;51.192;6.788;2024-01-15T02:12:20;20.60;43.90
909;DHT22;441;51.192;6.788;2024-01-15T02:14:47;20.60;43.30
909;DHT22;441;51.192;6.788;2024-01-15T02:17:16;20.60;43.40
909;DHT22;441;51.192;6.788;2024-01-15T02:19:43;20.60;43.30
909;DHT22;441;51.192;6.788;2024-01-15T02:22:09;20.60;43.30
909;DHT22;441;51.192;6.788;2024-01-15T02:24:38;20.60;43.30
909;DHT22;441;51.192;6.788;2024-01-15T02:27:05;20.60;43.40
909;DHT22;441;51.192;6.788;2024-01-15T02:29:32;20.60;43.50
909;DHT22;441;51.192;6.788;2024-01-15T02:31:59;20.60;43.40
909;DHT22;441;51.192;6.788;2024-01-15T02:34:25;20.60;43.40
909;DHT22;441;51.192;6.788;2024-01-15T02:36:52;20.60;43.40
909;DHT22;441;51.192;6.788;2024-01-15T02:39:19;20.60;43.50
909;DHT22;441;51.192;6.788;2024-01-15T02:41:47;20.60;43.50
909;DHT22;441;51.192;6.788;2024-01-15T02:44:14;20.60;43.60
909;DHT22;441;51.192;6.788;2024-01-15T02:46:41;20.60;43.50
909;DHT22;441;51.192;6.788;2024-01-15T02:49:08;20.60;43.50
909;DHT22;441;51.192;6.788;2024-01-15T02:51:35;20.60;43.50
909;DHT22;441;51.192;6.788;2024-01-15T02:54:02;20.50;43.50
909;DHT22;441;51.192;6.788;2024-01-15T02:56:29;20.50;43.60
909;DHT22;441;51.192;6.788;2024-01-15T02:58:57;20.50;43.60
909;DHT22;441;51.192;6.788;2024-01-15T03:01:24;20.50;43.50
909;DHT22;441;51.192;6.788;2024-01-15T03:03:51;20.50;43.50
909;DHT22;441;51.192;6.788;2024-01-15T03:06:17;20.50;43.50
909;DHT22;441;51.192;6.788;2024-01-15T03:08:44;20.50;43.60
909;DHT22;441;51.192;6.788;2024-01-15T03:11:11;20.50;43.60
909;DHT22;441;51.192;6.788;2024-01-15T03:13:38;20.50;43.60
909;DHT22;441;51.192;6.788;2024-01-15T03:16:06;20.50;43.60
909;DHT22;441;51.192;6.788;2024-01-15T03:18:33;20.50;43.70
909;DHT22;441;51.192;6.788;2024-01-15T03:21:00;20.50;43.70
909;DHT22;441;51.192;6.788;2024-01-15T03:23:27;20.50;43.70
909;DHT22;441;51.192;6.788;2024-01-15T03:25:55;20.50;43.70
909;DHT22;441;51.192;6.788;2024-01-15T03:28:21;20.50;43.70
909;DHT22;441;51.192;6.788;2024-01-15T03:30:48;20.50;43.70
909;DHT22;441;51.192;6.788;2024-01-15T03:33:17;20.50;43.70
909;DHT22;441;51.192;6.788;2024-01-15T03:35:43;20.50;43.70
909;DHT22;441;51.192;6.788;2024-01-15T03:38:10;20.50;43.70
909;DHT22;441;51.192;6.788;2024-01-15T03:40:37;20.50;43.70
909;DHT22;441;51.192;6.788;2024-01-15T03:43:04;20.50;43.70
909;DHT22;441;51.192;6.788;2024-01-15T03:45:31;20.50;43.80
909;DHT22;441;51.192;6.788;2024-01-15T03:47:58;20.50;43.90
909;DHT22;441;51.192;6.788;2024-01-15T03:50:26;20.50;43.90
909;DHT22;441;51.192;6.788;2024-01-15T03:52:53;20.50;43.80
909;DHT22;441;51.192;6.788;2024-01-15T03:55:20;20.50;43.80
909;DHT22;441;51.192;6.788;2024-01-15T03:57:47;20.50;43.90
909;DHT22;441;51.192;6.788;2024-01-15T04:00:15;20.50;43.80
909;DHT22;441;51.192;6.788;2024-01-15T04:02:43;20.40;43.80
909;DHT22;441;51.192;6.788;2024-01-15T04:05:10;20.50;43.90
909;DHT22;441;51.192;6.788;2024-01-15T04:07:38;20.40;43.90
909;DHT22;441;51.192;6.788;2024-01-15T04:10:06;20.40;43.90
909;DHT22;441;51.192;6.788;2024-01-15T04:12:33;20.40;43.80
909;DHT22;441;51.192;6.788;2024-01-15T04:15:00;20.40;43.90
909;DHT22;441;51.192;6.788;2024-01-15T04:17:27;20.40;43.80
909;DHT22;441;51.192;6.788;2024-01-15T04:19:54;20.40;43.80
909;DHT22;441;51.192;6.788;2024-01-15T04:22:21;20.40;43.90
909;DHT22;441;51.192;6.788;2024-01-15T04:24:49;20.40;43.80
909;DHT22;441;51.192;6.788;2024-01-15T04:27:16;20.40;43.80
909;DHT22;441;51.192;6.788;2024-01-15T04:29:43;20.40;43.80
909;DHT22;441;51.192;6.788;2024-01-15T04:32:10;20.40;43.90
909;DHT22;441;51.192;6.788;2024-01-15T04:34:37;20.40;43.80
909;DHT22;441;51.192;6.788;2024-01-15T04:37:04;20.40;43.80
909;DHT22;441;51.192;6.788;2024-01-15T04:39:31;20.40;43.80
909;DHT22;441;51.192;6.788;2024-01-15T04:41:59;20.40;43.90
909;DHT22;441;51.192;6.788;2024-01-15T04:44:26;20.40;43.90
909;DHT22;441;51.192;6.788;2024-01-15T04:46:53;20.40;44.00
909;DHT22;441;51.192;6.788;2024-01-15T04:49:20;20.40;43.90
909;DHT22;441;51.192;6.788;2024-01-15T04:51:47;20.40;43.90
909;DHT22;441;51.192;6.788;2024-01-15T04:54:13;20.40;44.00
909;DHT22;441;51.192;6.788;2024-01-15T04:56:43;20.40;43.90
909;DHT22;441;51.192;6.788;2024-01-15T04:59:11;20.40;43.90
909;DHT22;441;51.192;6.788;2024-01-15T05:01:38;20.40;44.00
909;DHT22;441;51.192;6.788;2024-01-15T05:04:05;20.40;44.00
909;DHT22;441;51.192;6.788;2024-01-15T05:06:32;20.40;44.00
909;DHT22;441;51.192;6.788;2024-01-15T05:08:59;20.40;44.00
909;DHT22;441;51.192;6.788;2024-01-15T05:11:26;20.40;43.90
909;DHT22;441;51.192;6.788;2024-01-15T05:13:53;20.40;44.10
909;DHT22;441;51.192;6.788;2024-01-15T05:16:21;20.40;43.90
909;DHT22;441;51.192;6.788;2024-01-15T05:18:48;20.40;43.80
909;DHT22;441;51.192;6.788;2024-01-15T05:21:15;20.40;43.90
909;DHT22;441;51.192;6.788;2024-01-15T05:23:42;20.40;43.90
909;DHT22;441;51.192;6.788;2024-01-15T05:26:09;20.40;44.00
909;DHT22;441;51.192;6.788;2024-01-15T05:28:36;20.40;44.00
909;DHT22;441;51.192;6.788;2024-01-15T05:31:03;20.40;44.00
909;DHT22;441;51.192;6.788;2024-01-15T05:33:31;20.40;43.90
909;DHT22;441;51.192;6.788;2024-01-15T05:35:58;20.40;43.90
909;DHT22;441;51.192;6.788;2024-01-15T05:38:24;20.40;43.90
909;DHT22;441;51.192;6.788;2024-01-15T05:40:51;20.40;43.80
909;DHT22;441;51.192;6.788;2024-01-15T05:43:18;20.50;43.80
909;DHT22;441;51.192;6.788;2024-01-15T05:45:45;20.40;43.70
909;DHT22;441;51.192;6.788;2024-01-15T05:48:12;20.40;44.10
909;DHT22;441;51.192;6.788;2024-01-15T05:50:41;20.40;44.20
909;DHT22;441;51.192;6.788;2024-01-15T05:53:08;20.40;44.30
909;DHT22;441;51.192;6.788;2024-01-15T05:55:36;20.40;44.20
909;DHT22;441;51.192;6.788;2024-01-15T05:58:04;20.40;44.00
909;DHT22;441;51.192;6.788;2024-01-15T06:00:30;20.50;44.10
909;DHT22;441;51.192;6.788;2024-01-15T06:02:58;20.40;43.80
909;DHT22;441;51.192;6.788;2024-01-15T06:05:25;20.50;43.70
909;DHT22;441;51.192;6.788;2024-01-15T06:07:54;20.50;43.70
909;DHT22;441;51.192;6.788;2024-01-15T06:10:21;20.50;43.80
909;DHT22;441;51.192;6.788;2024-01-15T06:12:48;20.50;44.00
909;DHT22;441;51.192;6.788;2024-01-15T06:15:15;20.50;44.40
909;DHT22;441;51.192;6.788;2024-01-15T06:17:42;20.60;44.90
909;DHT22;441;51.192;6.788;2024-01-15T06:20:10;20.60;46.00
909;DHT22;441;51.192;6.788;2024-01-15T06:22:38;20.60;46.50
909;DHT22;441;51.192;6.788;2024-01-15T06:25:07;20.70;47.50
909;DHT22;441;51.192;6.788;2024-01-15T06:27:34;20.70;47.80
909;DHT22;441;51.192;6.788;2024-01-15T06:30:01;20.80;48.00
909;DHT22;441;51.192;6.788;2024-01-15T06:32:28;20.80;47.90
909;DHT22;441;51.192;6.788;2024-01-15T06:34:55;20.80;47.70
909;DHT22;441;51.192;6.788;2024-01-15T06:37:22;20.80;47.40
909;DHT22;441;51.192;6.788;2024-01-15T06:39:49;20.70;47.10
909;DHT22;441;51.192;6.788;2024-01-15T06:42:18;20.80;46.90
909;DHT22;441;51.192;6.788;2024-01-15T06:44:44;20.80;46.70
909;DHT22;441;51.192;6.788;2024-01-15T06:47:11;20.80;46.40
909;DHT22;441;51.192;6.788;2024-01-15T06:49:38;20.80;46.20
909;DHT22;441;51.192;6.788;2024-01-15T06:52:05;20.80;46.00
909;DHT22;441;51.192;6.788;2024-01-15T06:54:32;20.80;45.80
909;DHT22;441;51.192;6.788;2024-01-15T06:56:59;20.80;45.60
909;DHT22;441;51.192;6.788;2024-01-15T06:59:27;20.80;45.50
909;DHT22;441;51.192;6.788;2024-01-15T07:01:54;20.80;45.30
909;DHT22;441;51.192;6.788;2024-01-15T07:04:21;20.80;45.10
909;DHT22;441;51.192;6.788;2024-01-15T07:06:48;20.90;45.10
909;DHT22;441;51.192;6.788;2024-01-15T07:09:15;20.80;44.80
909;DHT22;441;51.192;6.788;2024-01-15T07:11:44;20.80;44.70
909;DHT22;441;51.192;6.788;2024-01-15T07:14:12;20.80;44.60
909;DHT22;441;51.192;6.788;2024-01-15T07:16:41;20.80;44.50
909;DHT22;441;51.192;6.788;2024-01-15T07:19:07;20.80;44.40
909;DHT22;441;51.192;6.788;2024-01-15T07:21:34;20.80;44.30
909;DHT22;441;51.192;6.788;2024-01-15T07:24:01;20.80;44.10
909;DHT22;441;51.192;6.788;2024-01-15T07:26:30;20.80;44.10
909;DHT22;441;51.192;6.788;2024-01-15T07:28:57;20.90;44.00
909;DHT22;441;51.192;6.788;2024-01-15T07:31:23;20.80;43.90
909;DHT22;441;51.192;6.788;2024-01-15T07:33:52;20.80;43.80
909;DHT22;441;51.192;6.788;2024-01-15T07:36:18;20.90;43.90
909;DHT22;441;51.192;6.788;2024-01-15T07:38:45;20.90;43.80
909;DHT22;441;51.192;6.788;2024-01-15T07:41:13;20.80;43.60
909;DHT22;441;51.192;6.788;2024-01-15T07:43:40;20.90;43.70
909;DHT22;441;51.192;6.788;2024-01-15T07:46:07;20.90;43.60
909;DHT22;441;51.192;6.788;2024-01-15T07:48:34;20.90;43.60
909;DHT22;441;51.192;6.788;2024-01-15T07:51:02;20.90;43.50
909;DHT22;441;51.192;6.788;2024-01-15T07:53:29;20.90;43.40
909;DHT22;441;51.192;6.788;2024-01-15T07:55:56;21.00;43.40
909;DHT22;441;51.192;6.788;2024-01-15T07:58:24;21.00;43.40
909;DHT22;441;51.192;6.788;2024-01-15T08:00:51;21.00;43.40
909;DHT22;441;51.192;6.788;2024-01-15T08:03:18;21.00;43.30
909;DHT22;441;51.192;6.788;2024-01-15T08:05:45;21.00;43.20
909;DHT22;441;51.192;6.788;2024-01-15T08:08:13;21.00;43.10
909;DHT22;441;51.192;6.788;2024-01-15T08:10:40;21.00;43.00
909;DHT22;441;51.192;6.788;2024-01-15T08:13:07;21.00;43.00
909;DHT22;441;51.192;6.788;2024-01-15T08:15:35;21.00;42.90
909;DHT22;441;51.192;6.788;2024-01-15T08:18:00;21.10;42.90
909;DHT22;441;51.192;6.788;2024-01-15T08:20:28;21.10;42.90
909;DHT22;441;51.192;6.788;2024-01-15T08:22:55;21.10;42.80
909;DHT22;441;51.192;6.788;2024-01-15T08:25:23;21.10;42.80
909;DHT22;441;51.192;6.788;2024-01-15T08:27:51;21.10;42.70
909;DHT22;441;51.192;6.788;2024-01-15T08:30:18;21.10;42.70
909;DHT22;441;51.192;6.788;2024-01-15T08:32:46;21.10;42.60
909;DHT22;441;51.192;6.788;2024-01-15T08:35:12;21.10;42.60
909;DHT22;441;51.192;6.788;2024-01-15T08:37:39;21.10;42.50
909;DHT22;441;51.192;6.788;2024-01-15T08:40:07;21.10;42.50
909;DHT22;441;51.192;6.788;2024-01-15T08:42:35;21.10;42.40
909;DHT22;441;51.192;6.788;2024-01-15T08:45:02;21.10;42.40
909;DHT22;441;51.192;6.788;2024-01-15T08:47:29;21.10;42.30
909;DHT22;441;51.192;6.788;2024-01-15T08:49:56;21.10;42.30
909;DHT22;441;51.192;6.788;2024-01-15T08:52:24;21.00;42.20
909;DHT22;441;51.192;6.788;2024-01-15T08:54:51;21.00;42.20
909;DHT22;441;51.192;6.788;2024-01-15T08:57:18;21.10;42.30
909;DHT22;441;51.192;6.788;2024-01-15T08:59:46;21.10;42.20
909;DHT22;441;51.192;6.788;2024-01-15T09:02:13;21.10;42.30
909;DHT22;441;51.192;6.788;2024-01-15T09:04:41;21.10;42.20
909;DHT22;441;51.192;6.788;2024-01-15T09:07:08;21.10;42.20
909;DHT22;441;51.192;6.788;2024-01-15T09:09:35;21.10;42.10
909;DHT22;441;51.192;6.788;2024-01-15T09:12:02;21.10;42.10
909;DHT22;441;51.192;6.788;2024-01-15T09:14:29;21.10;42.00
909;DHT22;441;51.192;6.788;2024-01-15T09:16:57;21.10;42.00
909;DHT22;441;51.192;6.788;2024-01-15T09:19:24;21.10;42.00
909;DHT22;441;51.192;6.788;2024-01-15T09:21:51;21.20;42.10
909;DHT22;441;51.192;6.788;2024-01-15T09:24:17;21.20;42.00
909;DHT22;441;51.192;6.788;2024-01-15T09:26:44;21.20;42.00
909;DHT22;441;51.192;6.788;2024-01-15T09:29:11;21.20;41.90
909;DHT22;441;51.192;6.788;2024-01-15T09:31:41;21.20;41.90
909;DHT22;441;51.192;6.788;2024-01-15T09:34:09;21.20;41.90
909;DHT22;441;51.192;6.788;2024-01-15T09:36:39;21.20;41.80
909;DHT22;441;51.192;6.788;2024-01-15T09:39:07;21.20;41.80
909;DHT22;441;51.192;6.788;2024-01-15T09:41:35;21.10;41.70
909;DHT22;441;51.192;6.788;2024-01-15T09:44:03;21.10;41.70
909;DHT22;441;51.192;6.788;2024-01-15T09:46:30;21.10;41.70
909;DHT22;441;51.192;6.788;2024-01-15T09:48:58;21.10;41.60
909;DHT22;441;51.192;6.788;2024-01-15T09:51:26;21.10;41.60
909;DHT22;441;51.192;6.788;2024-01-15T09:53:54;21.10;41.60
909;DHT22;441;51.192;6.788;2024-01-15T09:56:22;21.10;41.60
909;DHT22;441;51.192;6.788;2024-01-15T09:58:49;21.10;41.50
909;DHT22;441;51.192;6.788;2024-01-15T10:01:17;21.10;41.60
909;DHT22;441;51.192;6.788;2024-01-15T10:03:44;21.10;41.50
909;DHT22;441;51.192;6.788;2024-01-15T10:06:11;21.10;41.50
909;DHT22;441;51.192;6.788;2024-01-15T10:08:47;21.10;41.50
909;DHT22;441;51.192;6.788;2024-01-15T10:11:14;21.10;41.50
909;DHT22;441;51.192;6.788;2024-01-15T10:13:43;21.10;41.50
909;DHT22;441;51.192;6.788;2024-01-15T10:16:10;21.20;41.50
909;DHT22;441;51.192;6.788;2024-01-15T10:18:37;21.20;41.50
909;DHT22;441;51.192;6.788;2024-01-15T10:21:06;21.20;41.50
909;DHT22;441;51.192;6.788;2024-01-15T10:23:34;21.20;41.50
909;DHT22;441;51.192;6.788;2024-01-15T10:26:03;21.20;41.50
909;DHT22;441;51.192;6.788;2024-01-15T10:28:30;21.20;41.40
909;DHT22;441;51.192;6.788;2024-01-15T10:30:59;21.20;41.40
909;DHT22;441;51.192;6.788;2024-01-15T10:33:26;21.20;41.40
909;DHT22;441;51.192;6.788;2024-01-15T10:35:54;21.20;41.30
909;DHT22;441;51.192;6.788;2024-01-15T10:38:21;21.20;41.30
909;DHT22;441;51.192;6.788;2024-01-15T10:40:51;21.20;41.30
909;DHT22;441;51.192;6.788;2024-01-15T10:43:20;21.20;41.30
909;DHT22;441;51.192;6.788;2024-01-15T10:45:48;21.20;41.30
909;DHT22;441;51.192;6.788;2024-01-15T10:48:17;21.20;41.20
909;DHT22;441;51.192;6.788;2024-01-15T10:50:45;21.20;41.30
909;DHT22;441;51.192;6.788;2024-01-15T10:53:15;21.20;41.20
909;DHT22;441;51.192;6.788;2024-01-15T10:55:43;21.20;41.20
909;DHT22;441;51.192;6.788;2024-01-15T10:58:10;21.20;41.20
909;DHT22;441;51.192;6.788;2024-01-15T11:00:38;21.20;41.10
909;DHT22;441;51.192;6.788;2024-01-15T11:03:06;21.20;41.10
909;DHT22;441;51.192;6.788;2024-01-15T11:05:33;21.20;41.10
909;DHT22;441;51.192;6.788;2024-01-15T11:08:01;21.20;41.10
909;DHT22;441;51.192;6.788;2024-01-15T11:10:44;21.20;41.10
909;DHT22;441;51.192;6.788;2024-01-15T11:13:19;21.20;41.00
909;DHT22;441;51.192;6.788;2024-01-15T11:15:58;21.20;41.00
909;DHT22;441;51.192;6.788;2024-01-15T11:18:27;21.20;41.00
909;DHT22;441;51.192;6.788;2024-01-15T11:21:25;21.20;41.00
909;DHT22;441;51.192;6.788;2024-01-15T11:23:54;21.20;41.00
909;DHT22;441;51.192;6.788;2024-01-15T11:26:30;21.20;41.00
909;DHT22;441;51.192;6.788;2024-01-15T11:28:58;21.20;41.00
909;DHT22;441;51.192;6.788;2024-01-15T11:31:57;21.20;41.00
909;DHT22;441;51.192;6.788;2024-01-15T11:34:52;21.20;41.00
909;DHT22;441;51.192;6.788;2024-01-15T11:37:20;21.20;41.00
909;DHT22;441;51.192;6.788;2024-01-15T11:39:47;21.20;41.00
909;DHT22;441;51.192;6.788;2024-01-15T11:42:14;21.20;41.00
909;DHT22;441;51.192;6.788;2024-01-15T11:44:41;21.20;41.00
909;DHT22;441;51.192;6.788;2024-01-15T11:47:11;21.20;40.90
909;DHT22;441;51.192;6.788;2024-01-15T11:50:00;21.20;40.90
909;DHT22;441;51.192;6.788;2024-01-15T11:52:32;21.20;40.90
909;DHT22;441;51.192;6.788;2024-01-15T11:55:11;21.20;40.80
909;DHT22;441;51.192;6.788;2024-01-15T11:57:45;21.20;40.80
909;DHT22;441;51.192;6.788;2024-01-15T12:00:13;21.20;40.80
909;DHT22;441;51.192;6.788;2024-01-15T12:02:42;21.20;40.80
909;DHT22;441;51.192;6.788;2024-01-15T12:05:10;21.20;40.70
909;DHT22;441;51.192;6.788;2024-01-15T12:07:38;21.30;40.70
909;DHT22;441;51.192;6.788;2024-01-15T12:10:09;21.20;40.60
909;DHT22;441;51.192;6.788;2024-01-15T12:12:56;21.20;40.60
909;DHT22;441;51.192;6.788;2024-01-15T12:15:24;21.20;40.70
909;DHT22;441;51.192;6.788;2024-01-15T12:17:53;21.20;40.70
909;DHT22;441;51.192;6.788;2024-01-15T12:20:21;21.20;40.70
909;DHT22;441;51.192;6.788;2024-01-15T12:22:48;21.20;40.70
909;DHT22;441;51.192;6.788;2024-01-15T12:25:14;21.20;40.60
909;DHT22;441;51.192;6.788;2024-01-15T12:27:42;21.20;40.70
909;DHT22;441;51.192;6.788;2024-01-15T12:30:11;21.20;40.70
909;DHT22;441;51.192;6.788;2024-01-15T12:32:39;21.20;40.60
909;DHT22;441;51.192;6.788;2024-01-15T12:35:08;21.20;40.60
909;DHT22;441;51.192;6.788;2024-01-15T12:37:35;21.20;40.60
909;DHT22;441;51.192;6.788;2024-01-15T12:40:03;21.20;40.60
909;DHT22;441;51.192;6.788;2024-01-15T12:42:30;21.20;40.60
909;DHT22;441;51.192;6.788;2024-01-15T12:44:57;21.20;40.60
909;DHT22;441;51.192;6.788;2024-01-15T12:47:24;21.20;40.60
909;DHT22;441;51.192;6.788;2024-01-15T12:49:52;21.20;40.60
909;DHT22;441;51.192;6.788;2024-01-15T12:52:21;21.20;40.60
909;DHT22;441;51.192;6.788;2024-01-15T12:54:49;21.20;40.60
909;DHT22;441;51.192;6.788;2024-01-15T12:57:16;21.20;40.60
909;DHT22;441;51.192;6.788;2024-01-15T12:59:43;21.20;40.60
909;DHT22;441;51.192;6.788;2024-01-15T13:02:11;21.20;40.50
909;DHT22;441;51.192;6.788;2024-01-15T13:04:38;21.20;40.50
909;DHT22;441;51.192;6.788;2024-01-15T13:07:05;21.20;40.50
909;DHT22;441;51.192;6.788;2024-01-15T13:09:34;21.20;40.40
909;DHT22;441;51.192;6.788;2024-01-15T13:12:01;21.20;40.50
909;DHT22;441;51.192;6.788;2024-01-15T13:14:29;21.20;40.40
909;DHT22;441;51.192;6.788;2024-01-15T13:16:55;21.20;40.40
909;DHT22;441;51.192;6.788;2024-01-15T13:19:24;21.20;40.40
909;DHT22;441;51.192;6.788;2024-01-15T13:21:51;21.20;40.40
909;DHT22;441;51.192;6.788;2024-01-15T13:24:19;21.20;40.40
909;DHT22;441;51.192;6.788;2024-01-15T13:26:47;21.20;40.40
909;DHT22;441;51.192;6.788;2024-01-15T13:29:14;21.20;40.40
909;DHT22;441;51.192;6.788;2024-01-15T13:31:41;21.20;40.40
909;DHT22;441;51.192;6.788;2024-01-15T13:34:08;21.20;40.40
909;DHT22;441;51.192;6.788;2024-01-15T13:36:35;21.20;40.40
909;DHT22;441;51.192;6.788;2024-01-15T13:39:04;21.20;40.40
909;DHT22;441;51.192;6.788;2024-01-15T13:41:34;21.20;40.30
909;DHT22;441;51.192;6.788;2024-01-15T13:44:03;21.20;40.40
909;DHT22;441;51.192;6.788;2024-01-15T13:46:30;21.20;40.40
909;DHT22;441;51.192;6.788;2024-01-15T13:48:56;21.20;40.30
909;DHT22;441;51.192;6.788;2024-01-15T13:51:24;21.20;40.30
909;DHT22;441;51.192;6.788;2024-01-15T13:53:51;21.20;40.30
909;DHT22;441;51.192;6.788;2024-01-15T13:56:18;21.20;40.30
909;DHT22;441;51.192;6.788;2024-01-15T13:58:46;21.20;40.30
909;DHT22;441;51.192;6.788;2024-01-15T14:01:15;21.20;40.30
909;DHT22;441;51.192;6.788;2024-01-15T14:03:43;21.20;40.30
909;DHT22;441;51.192;6.788;2024-01-15T14:06:10;21.20;40.30
909;DHT22;441;51.192;6.788;2024-01-15T14:08:37;21.20;40.30
909;DHT22;441;51.192;6.788;2024-01-15T14:11:04;21.20;40.30
909;DHT22;441;51.192;6.788;2024-01-15T14:13:32;21.20;40.30
909;DHT22;441;51.192;6.788;2024-01-15T14:15:59;21.20;40.30
909;DHT22;441;51.192;6.788;2024-01-15T14:18:27;21.20;40.30
909;DHT22;441;51.192;6.788;2024-01-15T14:20:54;21.20;40.30
909;DHT22;441;51.192;6.788;2024-01-15T14:23:21;21.20;40.30
909;DHT22;441;51.192;6.788;2024-01-15T14:25:48;21.20;40.20
909;DHT22;441;51.192;6.788;2024-01-15T14:28:15;21.20;40.20
909;DHT22;441;51.192;6.788;2024-01-15T14:30:42;21.20;40.20
909;DHT22;441;51.192;6.788;2024-01-15T14:33:09;21.20;40.20
909;DHT22;441;51.192;6.788;2024-01-15T14:35:37;21.20;40.20
909;DHT22;441;51.192;6.788;2024-01-15T14:38:04;21.20;40.20
909;DHT22;441;51.192;6.788;2024-01-15T14:40:33;21.20;40.20
909;DHT22;441;51.192;6.788;2024-01-15T14:43:02;21.20;40.20
909;DHT22;441;51.192;6.788;2024-01-15T14:45:29;21.20;40.20
909;DHT22;441;51.192;6.788;2024-01-15T14:47:56;21.20;40.20
909;DHT22;441;51.192;6.788;2024-01-15T14:50:24;21.20;41.30
909;DHT22;441;51.192;6.788;2024-01-15T14:52:52;21.10;42.00
909;DHT22;441;51.192;6.788;2024-01-15T14:55:19;21.10;42.40
909;DHT22;441;51.192;6.788;2024-01-15T14:57:49;21.20;42.50
909;DHT22;441;51.192;6.788;2024-01-15T15:00:16;21.20;42.80
909;DHT22;441;51.192;6.788;2024-01-15T15:02:43;21.20;42.50
909;DHT22;441;51.192;6.788;2024-01-15T15:05:10;21.20;42.60
909;DHT22;441;51.192;6.788;2024-01-15T15:07:38;21.20;42.40
909;DHT22;441;51.192;6.788;2024-01-15T15:10:08;21.20;42.40
909;DHT22;441;51.192;6.788;2024-01-15T15:12:36;21.20;42.70
909;DHT22;441;51.192;6.788;2024-01-15T15:15:04;21.20;42.50
909;DHT22;441;51.192;6.788;2024-01-15T15:17:32;21.20;42.40
909;DHT22;441;51.192;6.788;2024-01-15T15:20:00;21.30;42.50
909;DHT22;441;51.192;6.788;2024-01-15T15:22:29;21.30;42.40
909;DHT22;441;51.192;6.788;2024-01-15T15:24:56;21.30;42.30
909;DHT22;441;51.192;6.788;2024-01-15T15:27:24;21.30;42.30
909;DHT22;441;51.192;6.788;2024-01-15T15:29:53;21.30;42.20
909;DHT22;441;51.192;6.788;2024-01-15T15:32:19;21.30;42.20
909;DHT22;441;51.192;6.788;2024-01-15T15:34:47;21.30;42.20
909;DHT22;441;51.192;6.788;2024-01-15T15:37:14;21.30;42.30
909;DHT22;441;51.192;6.788;2024-01-15T15:39:42;21.30;42.30
909;DHT22;441;51.192;6.788;2024-01-15T15:42:09;21.30;42.30
909;DHT22;441;51.192;6.788;2024-01-15T15:44:38;21.40;42.70
909;DHT22;441;51.192;6.788;2024-01-15T15:47:11;21.40;42.80
909;DHT22;441;51.192;6.788;2024-01-15T15:49:38;21.40;42.80
909;DHT22;441;51.192;6.788;2024-01-15T15:52:06;21.40;43.50
909;DHT22;441;51.192;6.788;2024-01-15T15:54:33;21.40;43.50
909;DHT22;441;51.192;6.788;2024-01-15T15:57:00;21.40;43.70
909;DHT22;441;51.192;6.788;2024-01-15T15:59:26;21.40;43.40
909;DHT22;441;51.192;6.788;2024-01-15T16:01:55;21.40;43.80
909;DHT22;441;51.192;6.788;2024-01-15T16:04:22;21.50;43.90
909;DHT22;441;51.192;6.788;2024-01-15T16:06:49;21.50;43.40
909;DHT22;441;51.192;6.788;2024-01-15T16:09:16;21.50;43.20
909;DHT22;441;51.192;6.788;2024-01-15T16:11:43;21.50;43.60
909;DHT22;441;51.192;6.788;2024-01-15T16:14:10;21.50;42.90
909;DHT22;441;51.192;6.788;2024-01-15T16:16:37;21.50;43.20
909;DHT22;441;51.192;6.788;2024-01-15T16:19:06;21.50;43.70
909;DHT22;441;51.192;6.788;2024-01-15T16:21:33;21.50;43.50
909;DHT22;441;51.192;6.788;2024-01-15T16:24:00;21.50;43.50
909;DHT22;441;51.192;6.788;2024-01-15T16:26:27;21.50;43.80
909;DHT22;441;51.192;6.788;2024-01-15T16:28:54;21.60;44.20
909;DHT22;441;51.192;6.788;2024-01-15T16:31:21;21.60;44.10
909;DHT22;441;51.192;6.788;2024-01-15T16:33:48;21.80;43.70
909;DHT22;441;51.192;6.788;2024-01-15T16:36:17;21.80;43.70
909;DHT22;441;51.192;6.788;2024-01-15T16:38:46;21.50;41.40